createdAt,value
2017-03-23T00:02:02.907Z,8.1
2017-03-23T00:07:02.883Z,8.2
2017-03-23T00:12:03.730Z,8.3
2017-03-23T00:17:03.080Z,8.4
2017-03-23T00:22:03.488Z,8.3
2017-03-23T00:27:02.908Z,8.3
2017-03-23T00:32:03.426Z,8.0
2017-03-23T00:37:03.192Z,7.9
2017-03-23T00:42:02.796Z,7.9
2017-03-23T00:47:03.410Z,7.8
2017-03-23T00:52:02.871Z,7.8
2017-03-23T00:57:03.512Z,7.9
2017-03-23T01:02:03.156Z,8.1
2017-03-23T01:07:02.969Z,8.2
2017-03-23T01:12:03.880Z,8.1
2017-03-23T01:17:03.427Z,8.2
2017-03-23T01:22:02.857Z,8.2
2017-03-23T01:27:03.267Z,8.3
2017-03-23T01:32:02.807Z,8.3
2017-03-23T01:37:02.943Z,8.3
2017-03-23T01:42:03.488Z,8.3
2017-03-23T01:47:03.036Z,8.1
2017-03-23T01:52:03.183Z,8.1
2017-03-23T01:57:03.397Z,8.0
2017-03-23T02:02:02.789Z,8.1
2017-03-23T02:07:03.196Z,8.0
2017-03-23T02:12:02.712Z,8.0
2017-03-23T02:17:03.221Z,7.9
2017-03-23T02:22:03.103Z,7.7
2017-03-23T02:27:02.701Z,7.7
2017-03-23T02:32:04.875Z,7.6
2017-03-23T02:37:03.731Z,7.5
2017-03-23T02:42:02.927Z,7.6
2017-03-23T02:47:03.274Z,7.6
2017-03-23T02:52:03.255Z,7.7
2017-03-23T02:57:03.317Z,7.6
2017-03-23T03:02:03.514Z,7.7
2017-03-23T03:07:02.935Z,7.7
2017-03-23T03:12:03.383Z,7.7
2017-03-23T03:17:03.514Z,7.7
2017-03-23T03:22:03.606Z,7.7
2017-03-23T03:27:02.914Z,7.7
2017-03-23T03:32:02.820Z,7.7
2017-03-23T03:37:03.133Z,7.6
2017-03-23T03:42:03.111Z,7.7
2017-03-23T03:47:03.263Z,7.7
2017-03-23T03:52:03.598Z,7.5
2017-03-23T03:57:03.502Z,7.5
2017-03-23T04:02:02.774Z,7.4
2017-03-23T04:07:03.086Z,7.4
2017-03-23T04:12:03.336Z,7.4
2017-03-23T04:17:03.393Z,7.4
2017-03-23T04:22:02.746Z,7.2
2017-03-23T04:27:02.951Z,7.3
2017-03-23T04:32:03.219Z,7.3
2017-03-23T04:37:03.415Z,7.3
2017-03-23T04:42:02.773Z,7.4
2017-03-23T04:47:03.358Z,7.3
2017-03-23T04:52:02.938Z,7.3
2017-03-23T04:57:03.022Z,7.4
2017-03-23T05:02:13.250Z,7.4
2017-03-23T05:07:03.449Z,7.3
2017-03-23T05:12:02.852Z,7.4
2017-03-23T05:17:13.593Z,7.5
2017-03-23T05:22:03.385Z,7.5
2017-03-23T05:27:03.417Z,7.4
2017-03-23T05:32:13.400Z,7.4
2017-03-23T05:37:02.820Z,7.5
2017-03-23T05:42:03.483Z,7.4
2017-03-23T05:47:14.002Z,7.4
2017-03-23T05:52:03.469Z,7.5
2017-03-23T05:57:03.154Z,7.4
2017-03-23T06:02:13.014Z,7.4
2017-03-23T06:07:02.875Z,7.5
2017-03-23T06:12:03.035Z,7.5
2017-03-23T06:17:13.450Z,7.7
2017-03-23T06:22:02.834Z,7.8
2017-03-23T06:27:02.744Z,7.8
2017-03-23T06:32:16.827Z,7.9
2017-03-23T06:37:03.156Z,7.9
2017-03-23T06:42:02.995Z,7.9
2017-03-23T06:47:17.841Z,7.9
2017-03-23T06:52:02.673Z,7.9
2017-03-23T06:57:02.669Z,7.9
2017-03-23T07:02:13.773Z,8.3
2017-03-23T07:07:03.416Z,8.7
2017-03-23T07:12:03.062Z,8.7
2017-03-23T07:17:14.253Z,9.2
2017-03-23T07:22:02.724Z,10.0
2017-03-23T07:27:02.773Z,10.0
2017-03-23T07:32:13.447Z,10.5
2017-03-23T07:37:03.181Z,10.5
2017-03-23T07:42:03.664Z,10.8
2017-03-23T07:47:13.442Z,11.0
2017-03-23T07:52:02.653Z,11.3
2017-03-23T07:57:03.000Z,11.8
2017-03-23T08:02:16.966Z,12.1
2017-03-23T08:07:02.884Z,12.4
2017-03-23T08:12:03.540Z,12.4
2017-03-23T08:17:08.628Z,12.7
2017-03-23T08:22:03.097Z,12.6
2017-03-23T08:27:02.934Z,12.5
2017-03-23T08:32:13.599Z,12.6
2017-03-23T08:37:02.680Z,12.7
2017-03-23T08:42:03.343Z,13.0
2017-03-23T08:47:12.875Z,13.2
2017-03-23T08:52:02.999Z,13.2
2017-03-23T08:57:03.082Z,13.4
2017-03-23T09:02:12.817Z,13.7
2017-03-23T09:07:03.186Z,14.3
2017-03-23T09:12:03.249Z,14.4
2017-03-23T09:17:12.861Z,14.4
2017-03-23T09:22:03.437Z,14.8
2017-03-23T09:27:02.954Z,15.2
2017-03-23T09:32:12.543Z,15.8
2017-03-23T09:37:03.447Z,15.8
2017-03-23T09:42:03.547Z,15.9
2017-03-23T09:47:13.202Z,15.9
2017-03-23T09:52:02.802Z,16.3
2017-03-23T09:57:03.418Z,16.7
2017-03-23T10:02:13.100Z,17.4
2017-03-23T10:07:02.952Z,17.4
2017-03-23T10:12:03.199Z,17.8
2017-03-23T10:17:11.137Z,18.2
2017-03-23T10:22:03.027Z,18.2
2017-03-23T10:27:02.947Z,18.5
2017-03-23T10:32:13.056Z,18.7
2017-03-23T10:37:03.273Z,18.7
2017-03-23T10:42:02.772Z,19.1
2017-03-23T10:47:10.741Z,19.5
2017-03-23T10:52:03.020Z,19.5
2017-03-23T10:57:03.160Z,19.7
2017-03-23T11:02:13.400Z,20.1
2017-03-23T11:07:03.582Z,20.3
2017-03-23T11:12:02.994Z,20.3
2017-03-23T11:17:13.283Z,20.8
2017-03-23T11:22:03.322Z,20.7
2017-03-23T11:27:03.497Z,20.9
2017-03-23T11:32:13.269Z,21.4
2017-03-23T11:37:03.094Z,21.4
2017-03-23T11:42:02.898Z,21.5
2017-03-23T11:47:14.093Z,21.5
2017-03-23T11:52:03.460Z,21.7
2017-03-23T11:57:03.070Z,21.9
2017-03-23T12:02:09.890Z,22.0
2017-03-23T12:07:03.319Z,21.8
2017-03-23T12:12:02.777Z,22.1
2017-03-23T12:17:13.407Z,22.4
2017-03-23T12:22:03.484Z,22.6
2017-03-23T12:27:02.886Z,22.9
2017-03-23T12:32:12.912Z,23.1
2017-03-23T12:37:03.544Z,23.3
2017-03-23T12:42:02.714Z,23.4
2017-03-23T12:47:12.677Z,23.4
2017-03-23T12:52:02.688Z,23.6
2017-03-23T12:57:02.774Z,23.8
2017-03-23T13:02:13.193Z,24.1
2017-03-23T13:07:02.809Z,24.3
2017-03-23T13:12:02.956Z,24.6
2017-03-23T13:17:13.465Z,24.9
2017-03-23T13:22:03.297Z,24.9
2017-03-23T13:27:03.319Z,25.2
2017-03-23T13:32:13.975Z,25.2
2017-03-23T13:37:03.325Z,25.1
2017-03-23T13:42:02.762Z,25.3
2017-03-23T13:47:13.471Z,25.8
2017-03-23T13:52:03.190Z,25.7
2017-03-23T13:57:03.469Z,26.1
2017-03-23T14:02:13.194Z,26.2
2017-03-23T14:07:02.772Z,26.1
2017-03-23T14:12:03.201Z,26.2
2017-03-23T14:17:13.122Z,26.0
2017-03-23T14:22:03.347Z,26.1
2017-03-23T14:27:03.386Z,26.6
2017-03-23T14:32:13.069Z,27.7
2017-03-23T14:37:03.045Z,28.8
2017-03-23T14:42:03.518Z,29.5
2017-03-23T14:47:17.452Z,29.4
2017-03-23T14:52:03.476Z,29.5
2017-03-23T14:57:03.446Z,29.5
2017-03-23T15:02:13.679Z,30.0
2017-03-23T15:07:03.189Z,31.1
2017-03-23T15:12:03.226Z,32.0
2017-03-23T15:17:13.795Z,32.0
2017-03-23T15:22:03.066Z,32.4
2017-03-23T15:27:03.349Z,32.4
2017-03-23T15:32:17.570Z,33.5
2017-03-23T15:37:02.954Z,34.3
2017-03-23T15:42:03.057Z,35.2
2017-03-23T15:47:13.321Z,35.1
2017-03-23T15:52:03.270Z,35.2
2017-03-23T15:57:03.117Z,35.2
2017-03-23T16:02:13.632Z,33.5
2017-03-23T16:07:03.598Z,33.5
2017-03-23T16:12:03.333Z,32.2
2017-03-23T16:17:13.814Z,31.5
2017-03-23T16:22:02.905Z,30.6
2017-03-23T16:27:03.451Z,29.1
2017-03-23T16:32:17.996Z,27.3
2017-03-23T16:37:03.215Z,27.2
2017-03-23T16:42:03.371Z,25.4
2017-03-23T16:47:13.249Z,23.5
2017-03-23T16:52:03.418Z,23.5
2017-03-23T16:57:03.554Z,23.1
2017-03-23T17:02:13.681Z,21.6
2017-03-23T17:07:03.089Z,19.5
2017-03-23T17:12:02.815Z,19.4
2017-03-23T17:17:13.883Z,18.5
2017-03-23T17:22:03.453Z,17.7
2017-03-23T17:27:03.659Z,17.0
2017-03-23T17:32:17.829Z,15.7
2017-03-23T17:37:02.736Z,15.6
2017-03-23T17:42:03.216Z,15.2
2017-03-23T17:47:17.610Z,14.3
2017-03-23T17:52:03.016Z,14.2
2017-03-23T17:57:02.935Z,14.0
2017-03-23T18:02:13.331Z,13.3
2017-03-23T18:07:02.818Z,13.1
2017-03-23T18:12:03.601Z,12.8
2017-03-23T18:17:09.071Z,12.7
2017-03-23T18:22:03.389Z,12.7
2017-03-23T18:27:02.829Z,12.3
2017-03-23T18:32:03.088Z,12.2
2017-03-23T18:37:02.772Z,12.2
2017-03-23T18:42:03.219Z,12.2
2017-03-23T18:47:03.257Z,12.1
2017-03-23T18:52:02.859Z,11.9
2017-03-23T18:57:03.443Z,11.8
2017-03-23T19:02:03.491Z,11.6
2017-03-23T19:07:02.757Z,11.6
2017-03-23T19:12:02.831Z,11.5
2017-03-23T19:17:03.386Z,11.4
2017-03-23T19:22:03.120Z,11.1
2017-03-23T19:27:02.807Z,11.1
2017-03-23T19:32:03.203Z,11.0
2017-03-23T19:37:03.158Z,10.8
2017-03-23T19:42:03.573Z,10.8
2017-03-23T19:47:02.888Z,10.7
2017-03-23T19:52:02.752Z,10.7
2017-03-23T19:57:02.883Z,10.6
2017-03-23T20:02:02.819Z,10.6
2017-03-23T20:07:03.495Z,10.5
2017-03-23T20:12:03.071Z,10.5
2017-03-23T20:17:03.009Z,10.4
2017-03-23T20:22:03.213Z,10.3
2017-03-23T20:27:03.053Z,10.3
2017-03-23T20:32:02.793Z,10.3
2017-03-23T20:37:03.577Z,10.2
2017-03-23T20:42:02.901Z,10.0
2017-03-23T20:47:03.672Z,10.0
2017-03-23T20:52:02.665Z,9.8
2017-03-23T20:57:03.175Z,9.8
2017-03-23T21:02:03.096Z,9.8
2017-03-23T21:07:03.278Z,9.9
2017-03-23T21:12:02.989Z,9.8
2017-03-23T21:17:02.939Z,10.0
2017-03-23T21:22:03.087Z,9.9
2017-03-23T21:27:02.872Z,9.9
2017-03-23T21:32:03.189Z,10.0
2017-03-23T21:37:03.459Z,10.0
2017-03-23T21:42:02.869Z,10.0
2017-03-23T21:47:03.168Z,10.0
2017-03-23T21:52:02.874Z,10.1
2017-03-23T21:57:02.687Z,10.1
2017-03-23T22:02:03.031Z,10.1
2017-03-23T22:07:03.171Z,10.0
2017-03-23T22:12:03.477Z,10.1
2017-03-23T22:17:03.216Z,10.1
2017-03-23T22:22:03.765Z,10.0
2017-03-23T22:27:02.822Z,10.0
2017-03-23T22:32:03.592Z,10.0
2017-03-23T22:37:03.106Z,10.0
2017-03-23T22:42:03.110Z,10.0
2017-03-23T22:47:03.128Z,10.0
2017-03-23T22:52:02.792Z,10.1
2017-03-23T22:57:03.195Z,10.1
2017-03-23T23:02:03.132Z,10.1
2017-03-23T23:07:03.450Z,10.2
2017-03-23T23:12:03.659Z,10.2
2017-03-23T23:22:03.024Z,10.4
2017-03-23T23:27:03.613Z,10.4
2017-03-23T23:32:03.363Z,10.4
2017-03-23T23:37:03.597Z,10.3
2017-03-23T23:42:03.175Z,10.2
2017-03-23T23:47:03.112Z,10.2
2017-03-23T23:52:03.254Z,10.1
2017-03-23T23:57:02.814Z,10.2
